Time;durP1;ratioP1;P1;durP2;ratioP2;P2;SDS_P1;SDS_P2;PMS_P1;PMS_P2;Temp;Humidity;BMP_temperature;BMP_pressure;BME280_temperature;BME280_humidity;BME280_pressure;Samples;Min_cycle;Max_cycle;Signal;HPM_P1;HPM_P2
2021/08/14 00:00:28;;;;;;;2.75;1.80;;;;;;;28.36;49.04;100771.28;4980835;28;69426;-35
2021/08/14 00:03:00;;;;;;;1.80;1.60;;;;;;;28.36;48.62;100771.28;4977007;28;65628;-35
2021/08/14 00:05:30;;;;;;;3.20;1.75;;;;;;;28.32;48.43;100775.41;4978769;28;70418;-35
2021/08/14 00:08:01;;;;;;;2.08;1.88;;;;;;;28.30;48.44;100785.56;4975209;28;65173;-35
2021/08/14 00:10:45;;;;;;;1.70;1.60;;;;;;;28.18;48.31;100781.84;4991298;28;70534;-35
2021/08/14 00:13:15;;;;;;;1.75;1.65;;;;;;;28.27;47.98;100794.09;4982572;28;66318;-35
2021/08/14 00:15:46;;;;;;;2.60;1.75;;;;;;;28.20;48.22;100795.94;4992712;28;70919;-35
2021/08/14 00:18:19;;;;;;;1.50;1.40;;;;;;;28.22;48.14;100804.66;4978551;28;43334;-35
2021/08/14 00:20:49;;;;;;;1.58;1.48;;;;;;;28.22;48.31;100824.38;5001752;28;70185;-35
2021/08/14 00:23:20;;;;;;;1.75;1.60;;;;;;;28.21;48.14;100821.88;4979175;28;66394;-35
2021/08/14 00:25:50;;;;;;;1.50;1.40;;;;;;;28.08;47.89;100795.69;4975673;28;69703;-35
2021/08/14 00:28:21;;;;;;;2.08;1.35;;;;;;;28.17;47.68;100820.63;4982058;28;66012;-36
2021/08/14 00:30:52;;;;;;;1.80;1.60;;;;;;;28.17;47.61;100826.03;4978303;28;70636;-35
2021/08/14 00:33:22;;;;;;;2.15;1.30;;;;;;;28.12;47.58;100823.09;4983543;28;66441;-35
2021/08/14 00:35:53;;;;;;;3.85;1.50;;;;;;;28.06;47.57;100825.56;4974629;28;69780;-35
2021/08/14 00:38:23;;;;;;;1.77;1.33;;;;;;;27.98;47.64;100817.66;4977416;28;64855;-33
2021/08/14 00:40:54;;;;;;;1.92;1.58;;;;;;;28.12;48.18;100834.72;4989399;28;69811;-34
2021/08/14 00:43:25;;;;;;;3.38;1.65;;;;;;;28.16;48.92;100829.75;4977842;28;65977;-35
2021/08/14 00:46:02;;;;;;;2.60;1.85;;;;;;;27.51;49.57;100719.59;4980212;28;69299;-36
2021/08/14 00:48:36;;;;;;;5.95;1.60;;;;;;;28.23;49.18;100825.22;4983247;28;66123;-35
2021/08/14 00:51:08;;;;;;;3.88;1.65;;;;;;;28.20;49.05;100833.72;4980303;28;69274;-35
2021/08/14 00:53:39;;;;;;;1.35;1.25;;;;;;;28.25;49.42;100837.47;4971837;28;66155;-36
2021/08/14 00:56:09;;;;;;;6.18;1.63;;;;;;;28.33;49.35;100841.81;4959148;28;69922;-36
2021/08/14 00:58:40;;;;;;;2.97;1.17;;;;;;;28.37;48.84;100843.09;4977197;28;65827;-36
2021/08/14 01:01:11;;;;;;;1.42;1.23;;;;;;;28.36;49.35;100832.47;4978255;28;70284;-35
2021/08/14 01:03:42;;;;;;;1.33;1.23;;;;;;;28.34;49.13;100821.91;4976578;28;66316;-36
2021/08/14 01:06:17;;;;;;;1.92;1.73;;;;;;;28.46;52.05;100836.47;4987775;28;69745;-35
2021/08/14 01:08:48;;;;;;;6.80;2.65;;;;;;;28.50;54.49;100829.66;4976836;28;66231;-35
2021/08/14 01:11:19;;;;;;;5.23;2.70;;;;;;;28.57;53.60;100831.53;4950775;28;69316;-36
2021/08/14 01:13:50;;;;;;;6.38;2.55;;;;;;;28.61;53.19;100833.63;4970507;28;66107;-35
2021/08/14 01:16:21;;;;;;;17.48;3.15;;;;;;;28.66;55.58;100839.19;4974405;28;70069;-38
2021/08/14 01:18:51;;;;;;;24.73;3.30;;;;;;;28.63;55.29;100818.03;4972977;28;66561;-34
2021/08/14 01:21:24;;;;;;;20.75;3.08;;;;;;;28.70;54.19;100826.16;4969698;28;70144;-36
2021/08/14 01:24:04;;;;;;;13.27;2.92;;;;;;;28.79;55.22;100841.09;4974137;28;66564;-35
2021/08/14 01:26:47;;;;;;;6.15;2.78;;;;;;;28.71;54.26;100822.41;4976883;28;69682;-35
2021/08/14 01:29:18;;;;;;;8.90;2.60;;;;;;;28.84;53.64;100844.00;4974703;28;65210;-37
2021/08/14 01:31:49;;;;;;;2.92;2.72;;;;;;;28.85;52.76;100828.63;4972705;28;69980;-35
2021/08/14 01:34:20;;;;;;;3.85;2.50;;;;;;;28.83;54.00;100820.72;4976596;28;66285;-35
2021/08/14 01:36:51;;;;;;;2.70;2.50;;;;;;;28.91;53.41;100834.03;4977588;28;69316;-35
2021/08/14 01:39:22;;;;;;;2.90;2.35;;;;;;;28.90;53.59;100840.47;4973576;28;65990;-36
2021/08/14 01:42:01;;;;;;;6.35;2.40;;;;;;;28.78;53.25;100819.69;4973173;28;68692;-36
2021/08/14 01:44:33;;;;;;;4.00;2.22;;;;;;;28.93;52.26;100842.75;4967304;28;65453;-37
2021/08/14 01:47:04;;;;;;;13.68;2.42;;;;;;;28.94;53.70;100849.81;4985491;28;69223;-35
2021/08/14 01:49:35;;;;;;;2.40;2.20;;;;;;;28.96;52.50;100841.50;4956897;28;65494;-37
2021/08/14 01:52:13;;;;;;;6.93;2.42;;;;;;;28.95;51.69;100840.69;4976659;28;70677;-35
2021/08/14 01:54:47;;;;;;;3.83;2.08;;;;;;;29.00;50.95;100844.63;4991002;28;66269;-35
2021/08/14 01:57:17;;;;;;;14.35;3.47;;;;;;;29.06;58.98;100841.09;4972339;28;70089;-34
2021/08/14 01:59:48;;;;;;;3.67;3.20;;;;;;;29.13;62.36;100825.72;4981060;28;66085;-34
2021/08/14 02:02:18;;;;;;;6.40;3.42;;;;;;;29.45;61.65;100851.03;4990175;28;69976;-34
2021/08/14 02:04:49;;;;;;;9.13;3.90;;;;;;;29.58;66.30;100850.16;4993645;28;66135;-35
2021/08/14 02:07:19;;;;;;;4.65;3.83;;;;;;;29.79;65.78;100860.75;4981819;28;70423;-35
2021/08/14 02:09:50;;;;;;;8.93;3.83;;;;;;;29.93;65.46;100863.41;4978022;28;66212;-35
2021/08/14 02:12:21;;;;;;;6.78;3.75;;;;;;;30.00;65.44;100858.78;4976992;28;69475;-36
2021/08/14 02:14:51;;;;;;;4.18;3.55;;;;;;;30.07;66.04;100856.88;4976273;28;66793;-33
2021/08/14 02:17:22;;;;;;;3.70;3.40;;;;;;;30.19;67.07;100855.16;4979557;28;69009;-36
2021/08/14 02:19:52;;;;;;;5.20;3.63;;;;;;;30.30;66.43;100848.25;4960687;28;66862;-36
2021/08/14 02:22:23;;;;;;;5.72;3.85;;;;;;;30.33;66.22;100838.88;4977814;28;70000;-35
2021/08/14 02:24:53;;;;;;;3.78;3.40;;;;;;;30.44;65.76;100855.25;4976874;28;66095;-35
2021/08/14 02:27:23;;;;;;;10.70;3.40;;;;;;;30.51;65.49;100857.91;4968259;28;70648;-35
2021/08/14 02:29:54;;;;;;;7.60;3.60;;;;;;;30.54;66.09;100862.06;4987275;28;65666;-35
2021/08/14 02:32:25;;;;;;;3.92;3.53;;;;;;;30.63;66.58;100864.28;4975026;28;69962;-35
2021/08/14 02:34:55;;;;;;;3.53;3.20;;;;;;;30.71;65.71;100855.06;4975147;28;65428;-35
2021/08/14 02:37:26;;;;;;;4.45;3.30;;;;;;;30.76;65.69;100862.50;4980101;28;69788;-34
2021/08/14 02:39:56;;;;;;;5.15;3.90;;;;;;;30.82;66.38;100867.09;4978527;28;65320;-35
2021/08/14 02:42:27;;;;;;;11.45;3.65;;;;;;;30.90;66.41;100870.38;4971798;28;70465;-35
2021/08/14 02:44:57;;;;;;;9.55;3.30;;;;;;;30.94;65.15;100868.03;4977433;28;66337;-35
2021/08/14 02:47:28;;;;;;;7.10;2.92;;;;;;;30.97;66.64;100856.75;4991491;28;70464;-36
2021/08/14 02:49:58;;;;;;;9.15;3.03;;;;;;;31.01;66.42;100871.53;4992129;28;66480;-36
2021/08/14 02:52:30;;;;;;;7.25;3.08;;;;;;;31.01;67.60;100858.00;4979891;28;69746;-36
2021/08/14 02:55:01;;;;;;;15.75;3.42;;;;;;;31.07;66.72;100867.94;4962324;28;65430;-35
2021/08/14 02:57:32;;;;;;;8.05;3.10;;;;;;;31.00;67.04;100847.34;4976744;28;71050;-36
2021/08/14 03:00:03;;;;;;;7.55;2.92;;;;;;;31.13;66.51;100869.75;4977601;28;65932;-35
2021/08/14 03:02:34;;;;;;;8.27;2.72;;;;;;;31.16;66.73;100858.47;4976028;28;69150;-35
2021/08/14 03:05:07;;;;;;;4.50;3.05;;;;;;;31.20;66.34;100847.16;4983771;28;65887;-40
2021/08/14 03:07:51;;;;;;;9.05;3.08;;;;;;;31.22;66.95;100855.91;4971643;28;70933;-35
2021/08/14 03:10:23;;;;;;;9.55;2.58;;;;;;;31.24;66.52;100848.41;4973335;28;66319;-36
2021/08/14 03:12:53;;;;;;;7.18;2.70;;;;;;;31.29;65.80;100845.84;4978352;28;69530;-35
2021/08/14 03:15:24;;;;;;;6.03;2.38;;;;;;;31.31;66.29;100843.72;4976672;28;66324;-36
2021/08/14 03:17:54;;;;;;;9.57;4.53;;;;;;;31.33;65.95;100841.63;4979007;28;69921;-36
2021/08/14 03:20:25;;;;;;;12.75;9.40;;;;;;;31.32;65.75;100823.72;4974791;28;65155;-35
2021/08/14 03:22:56;;;;;;;10.65;9.40;;;;;;;31.41;65.27;100832.41;4975130;28;69894;-37
2021/08/14 03:25:27;;;;;;;11.45;8.85;;;;;;;31.40;65.63;100820.75;4976687;28;65586;-36
2021/08/14 03:27:58;;;;;;;10.77;9.80;;;;;;;31.45;65.66;100829.00;4988165;28;70651;-36
2021/08/14 03:30:28;;;;;;;10.30;9.50;;;;;;;31.39;65.58;100802.81;4971120;28;66223;-36
2021/08/14 03:32:59;;;;;;;12.53;11.33;;;;;;;31.47;65.60;100821.47;4978677;28;70499;-38
2021/08/14 03:35:34;;;;;;;9.48;8.50;;;;;;;31.43;64.78;100809.44;4978861;28;65487;-37
2021/08/14 03:38:05;;;;;;;7.22;6.55;;;;;;;31.54;64.40;100826.84;4951144;28;71479;-36
2021/08/14 03:40:35;;;;;;;10.68;6.82;;;;;;;31.56;64.64;100820.13;4971436;28;66747;-36
2021/08/14 03:43:06;;;;;;;5.53;5.13;;;;;;;31.55;65.24;100823.06;4967804;28;69323;-37
2021/08/14 03:45:36;;;;;;;4.78;4.20;;;;;;;31.60;64.33;100828.66;4976231;28;66096;-35
2021/08/14 03:48:07;;;;;;;5.85;4.05;;;;;;;31.57;64.84;100823.69;4983405;28;69915;-39
2021/08/14 03:50:39;;;;;;;8.35;3.45;;;;;;;31.61;64.23;100827.56;4975358;28;65168;-37
2021/08/14 03:53:10;;;;;;;8.55;2.85;;;;;;;31.59;64.35;100814.25;4973510;28;69641;-36
2021/08/14 03:55:40;;;;;;;2.85;2.58;;;;;;;31.66;64.20;100818.78;4980627;28;65705;-36
2021/08/14 03:58:10;;;;;;;3.00;2.70;;;;;;;31.67;63.95;100812.28;4969811;28;70402;-36
2021/08/14 04:00:41;;;;;;;8.15;2.20;;;;;;;31.70;63.84;100814.53;4991066;28;66509;-36
2021/08/14 04:03:11;;;;;;;3.35;2.33;;;;;;;31.71;63.08;100805.38;4975125;28;68199;-36
2021/08/14 04:05:42;;;;;;;2.28;2.08;;;;;;;31.74;63.82;100807.63;4958383;28;65931;-36
2021/08/14 04:08:14;;;;;;;3.38;2.95;;;;;;;31.74;63.93;100804.91;4973505;28;69461;-35
2021/08/14 04:10:44;;;;;;;3.17;2.53;;;;;;;31.76;63.43;100790.06;4973612;28;66558;-35
2021/08/14 04:13:15;;;;;;;3.22;2.72;;;;;;;31.79;63.75;100791.50;4976871;28;70118;-35
2021/08/14 04:15:46;;;;;;;4.15;2.65;;;;;;;31.77;63.52;100788.16;4982705;28;66467;-35
2021/08/14 04:18:17;;;;;;;6.22;3.15;;;;;;;31.70;63.69;100776.56;4964008;28;70231;-35
2021/08/14 04:20:48;;;;;;;3.72;2.10;;;;;;;31.77;63.51;100789.00;4968639;28;66642;-35
2021/08/14 04:23:19;;;;;;;4.95;2.20;;;;;;;31.78;63.07;100781.69;4964122;28;70119;-34
2021/08/14 04:25:49;;;;;;;13.40;2.80;;;;;;;31.77;62.98;100774.63;4994362;28;66421;-36
2021/08/14 04:28:20;;;;;;;30.48;2.80;;;;;;;31.80;63.46;100776.88;4976788;28;70935;-36
2021/08/14 04:30:53;;;;;;;7.15;2.78;;;;;;;31.85;62.95;100768.88;4974049;28;65362;-38
2021/08/14 04:33:24;;;;;;;2.70;2.28;;;;;;;31.88;63.11;100773.84;4973719;28;69381;-37
2021/08/14 04:35:54;;;;;;;2.03;1.83;;;;;;;31.92;63.27;100768.78;4978390;28;67105;-37
2021/08/14 04:38:25;;;;;;;2.60;1.92;;;;;;;31.74;62.99;100737.09;4976981;28;68527;-36
2021/08/14 04:40:55;;;;;;;2.17;1.55;;;;;;;31.98;62.16;100768.72;4984963;28;65688;-38
2021/08/14 04:43:26;;;;;;;5.68;2.08;;;;;;;31.94;61.77;100745.81;4957135;28;70066;-36
2021/08/14 04:45:57;;;;;;;7.05;1.60;;;;;;;32.04;61.38;100753.41;4951386;28;65701;-36
2021/08/14 04:48:40;;;;;;;6.32;2.00;;;;;;;32.04;60.86;100745.28;4970698;28;69180;-36
2021/08/14 04:51:11;;;;;;;5.10;1.77;;;;;;;32.11;60.99;100745.16;4974749;28;65418;-36
2021/08/14 04:53:41;;;;;;;1.58;1.48;;;;;;;32.16;60.72;100748.00;4969993;28;70139;-35
2021/08/14 04:56:11;;;;;;;1.88;1.77;;;;;;;32.15;61.08;100724.63;4974811;28;66348;-38
2021/08/14 04:58:43;;;;;;;8.70;1.88;;;;;;;32.13;61.50;100721.34;4977131;28;70353;-37
2021/08/14 05:01:14;;;;;;;7.35;1.60;;;;;;;32.22;61.83;100739.75;4973531;28;66118;-41
2021/08/14 05:03:44;;;;;;;2.22;1.35;;;;;;;32.23;62.08;100722.41;4974500;28;70341;-37
2021/08/14 05:06:16;;;;;;;1.70;1.47;;;;;;;32.22;62.18;100717.22;4975172;28;66278;-35
2021/08/14 05:08:46;;;;;;;2.20;2.00;;;;;;;32.15;62.39;100711.06;4974360;28;70545;-36
2021/08/14 05:11:16;;;;;;;2.58;2.15;;;;;;;32.21;62.24;100713.69;4969647;28;66299;-36
2021/08/14 05:13:47;;;;;;;3.03;2.20;;;;;;;32.25;62.61;100720.28;4971598;28;70458;-37
2021/08/14 05:16:18;;;;;;;6.53;2.83;;;;;;;32.22;62.82;100700.94;4976759;28;66735;-43
2021/08/14 05:18:52;;;;;;;8.30;2.35;;;;;;;32.26;63.20;100704.81;4968316;28;70354;-36
2021/08/14 05:21:22;;;;;;;8.77;2.80;;;;;;;32.26;61.63;100700.25;4965266;28;65580;-36
2021/08/14 05:23:53;;;;;;;5.57;2.53;;;;;;;32.18;60.40;100702.44;4978814;28;69925;-36
2021/08/14 05:26:36;;;;;;;5.60;2.75;;;;;;;32.02;59.13;100685.78;4895427;28;66393;-36
2021/08/14 05:29:07;;;;;;;9.35;2.47;;;;;;;31.94;58.28;100679.88;4891275;28;70333;-36
2021/08/14 05:31:37;;;;;;;7.20;2.38;;;;;;;31.89;57.35;100687.84;4879999;29;65665;-35
2021/08/14 05:34:09;;;;;;;3.20;2.15;;;;;;;31.72;56.94;100674.13;4893888;29;71154;-42
2021/08/14 05:36:40;;;;;;;;;;;;;;;31.39;56.12;100675.41;4879246;29;65567;-38
2021/08/14 05:39:11;;;;;;;6.00;1.77;;;;;;;31.49;54.63;100658.63;4894731;28;70229;-37
2021/08/14 05:41:44;;;;;;;4.93;1.90;;;;;;;31.51;53.86;100676.31;4894588;29;65592;-36
2021/08/14 05:44:15;;;;;;;3.97;1.55;;;;;;;31.45;53.59;100671.78;4891747;28;70647;-35
2021/08/14 05:46:46;;;;;;;8.10;1.90;;;;;;;31.19;52.13;100642.28;4895116;29;66498;-35
2021/08/14 05:49:18;;;;;;;9.82;1.92;;;;;;;31.32;52.12;100667.34;4894531;29;69946;-36
2021/08/14 05:51:49;;;;;;;31.15;2.80;;;;;;;31.26;51.58;100662.84;4864652;29;66163;-36
2021/08/14 05:54:20;;;;;;;55.55;4.18;;;;;;;31.19;51.58;100653.13;4891031;29;69631;-35
2021/08/14 05:56:51;;;;;;;58.40;3.92;;;;;;;31.21;51.68;100664.59;4891515;29;65489;-35
2021/08/14 05:59:23;;;;;;;51.78;3.67;;;;;;;31.15;51.67;100655.47;4879410;29;70099;-35
2021/08/14 06:01:54;;;;;;;58.03;3.80;;;;;;;31.10;51.31;100647.22;4893059;28;65449;-38
2021/08/14 06:04:26;;;;;;;41.42;3.28;;;;;;;31.02;50.53;100644.81;4943577;28;70678;-35
2021/08/14 06:06:58;;;;;;;45.45;3.20;;;;;;;31.01;50.61;100633.16;4974395;28;66415;-36
2021/08/14 06:09:47;;;;;;;30.55;2.50;;;;;;;30.88;49.75;100633.28;4973305;28;70449;-37
2021/08/14 06:12:36;;;;;;;22.83;2.33;;;;;;;30.91;49.38;100632.84;4968802;28;65660;-37
2021/08/14 06:15:26;;;;;;;10.57;1.92;;;;;;;30.82;48.50;100612.53;4969561;28;69074;-37
2021/08/14 06:18:15;;;;;;;22.15;2.22;;;;;;;30.87;49.25;100624.34;4973920;28;66378;-35
2021/08/14 06:21:04;;;;;;;17.55;1.92;;;;;;;30.86;48.19;100624.56;4974649;28;70991;-35
2021/08/14 06:23:53;;;;;;;19.15;1.70;;;;;;;30.81;48.44;100616.28;4974351;28;67051;-35
2021/08/14 06:26:42;;;;;;;8.95;1.60;;;;;;;30.80;47.37;100620.06;4958728;28;70681;-36
2021/08/14 06:29:31;;;;;;;7.57;1.40;;;;;;;30.82;47.16;100612.53;4968198;28;66360;-35
2021/08/14 06:32:20;;;;;;;8.07;1.58;;;;;;;30.82;46.87;100604.41;4975870;28;70298;-35
2021/08/14 06:35:09;;;;;;;3.05;1.00;;;;;;;30.86;47.38;100602.91;4974825;28;65677;-36
2021/08/14 06:37:58;;;;;;;7.93;1.40;;;;;;;30.78;47.17;100585.03;4973554;28;69492;-38
2021/08/14 06:40:46;;;;;;;4.13;1.30;;;;;;;30.82;46.29;100594.41;4973838;28;66008;-35
2021/08/14 06:43:35;;;;;;;2.83;1.30;;;;;;;30.81;45.87;100595.44;4970085;28;69511;-35
2021/08/14 06:46:24;;;;;;;1.90;0.90;;;;;;;30.73;45.26;100588.44;4975978;28;66375;-36
2021/08/14 06:49:12;;;;;;;3.88;0.98;;;;;;;30.70;45.72;100575.34;4971233;28;70018;-37
2021/08/14 06:52:01;;;;;;;1.92;0.90;;;;;;;30.80;45.40;100576.72;4975876;28;66440;-35
2021/08/14 06:54:49;;;;;;;4.53;1.20;;;;;;;30.80;45.43;100565.91;4985974;28;70143;-35
2021/08/14 06:57:38;;;;;;;2.00;0.88;;;;;;;30.80;45.20;100560.47;4962652;28;66341;-36
2021/08/14 07:00:26;;;;;;;2.15;0.73;;;;;;;30.84;44.07;100561.66;4971650;28;70172;-36
2021/08/14 07:03:15;;;;;;;2.15;0.95;;;;;;;30.87;44.96;100555.78;4975132;28;66225;-42
2021/08/14 07:06:04;;;;;;;3.83;0.77;;;;;;;30.88;44.82;100549.34;4978166;28;70213;-36
2021/08/14 07:08:53;;;;;;;5.35;1.10;;;;;;;30.90;44.81;100539.13;4973167;28;66252;-36
2021/08/14 07:11:45;;;;;;;5.40;0.90;;;;;;;30.90;44.67;100544.53;4981882;28;70077;-35
2021/08/14 07:14:35;;;;;;;1.63;0.90;;;;;;;30.89;44.55;100538.25;4970053;28;64628;-35
2021/08/14 07:17:24;;;;;;;1.67;0.70;;;;;;;30.91;44.13;100535.34;4986457;28;70611;-35
2021/08/14 07:20:13;;;;;;;1.40;0.90;;;;;;;30.95;44.09;100536.53;4973897;28;66706;-36
2021/08/14 07:23:02;;;;;;;1.52;0.57;;;;;;;30.71;44.36;100494.97;4979560;28;70407;-36
2021/08/14 07:25:52;;;;;;;1.15;0.60;;;;;;;30.92;43.72;100520.72;4989920;28;66530;-37
2021/08/14 07:28:40;;;;;;;0.90;0.70;;;;;;;30.97;43.95;100515.47;4977072;28;69950;-36
2021/08/14 07:31:29;;;;;;;1.20;0.88;;;;;;;30.97;44.17;100520.88;4976478;28;66269;-39
2021/08/14 07:34:18;;;;;;;1.67;0.82;;;;;;;30.88;43.61;100498.72;4987747;28;70353;-35
2021/08/14 07:37:07;;;;;;;1.15;0.88;;;;;;;30.95;43.36;100509.44;4979182;28;65561;-36
2021/08/14 07:39:56;;;;;;;1.25;1.00;;;;;;;30.95;43.64;100498.59;4980874;28;69585;-36
2021/08/14 07:42:45;;;;;;;2.85;0.98;;;;;;;30.95;43.04;100498.59;4971707;28;66602;-36
2021/08/14 07:45:35;;;;;;;1.58;1.08;;;;;;;30.93;43.11;100490.72;4979143;28;70622;-36
2021/08/14 07:48:24;;;;;;;1.50;1.10;;;;;;;30.94;42.82;100496.97;4990678;28;66409;-36
2021/08/14 07:51:13;;;;;;;1.60;1.00;;;;;;;30.93;43.06;100495.31;4975382;28;69987;-35
2021/08/14 07:54:01;;;;;;;1.48;1.23;;;;;;;30.92;42.49;100478.25;4976450;28;66280;-35
2021/08/14 07:56:50;;;;;;;1.23;0.98;;;;;;;30.91;42.42;100467.63;4977317;28;70096;-36
2021/08/14 07:59:42;;;;;;;1.55;1.20;;;;;;;30.94;42.92;100478.00;4977276;28;66372;-36
2021/08/14 08:02:31;;;;;;;5.40;1.20;;;;;;;30.98;42.64;100479.22;4976592;28;69397;-36
2021/08/14 08:05:20;;;;;;;1.73;1.20;;;;;;;30.98;42.46;100476.50;4972680;28;66299;-36
2021/08/14 08:08:09;;;;;;;1.58;1.48;;;;;;;30.98;42.46;100473.78;4975761;28;70318;-37
2021/08/14 08:10:57;;;;;;;2.17;1.80;;;;;;;30.88;44.24;100451.84;4976251;28;65008;-34
2021/08/14 08:13:46;;;;;;;7.70;2.25;;;;;;;31.08;46.54;100463.19;4979002;28;70361;-35
2021/08/14 08:16:34;;;;;;;3.63;2.75;;;;;;;31.15;46.09;100458.53;4975785;28;65561;-39
2021/08/14 08:19:06;;;;;;;2.55;2.35;;;;;;;31.17;45.34;100464.53;4991748;28;69953;-39
2021/08/14 08:21:37;;;;;;;2.60;2.40;;;;;;;31.21;44.87;100458.66;4959493;28;66762;-34
2021/08/14 08:24:08;;;;;;;2.30;2.10;;;;;;;31.22;44.21;100466.53;4960245;28;69285;-36
2021/08/14 08:26:39;;;;;;;2.22;2.03;;;;;;;31.14;43.58;100456.84;4975999;28;65717;-36
2021/08/14 08:29:10;;;;;;;2.25;2.05;;;;;;;31.16;43.08;100460.16;4973531;28;69707;-35
2021/08/14 08:31:42;;;;;;;2.20;2.00;;;;;;;31.13;43.93;100457.91;4974232;28;66463;-36
2021/08/14 08:34:13;;;;;;;2.13;1.90;;;;;;;31.08;42.98;100452.38;4985178;28;69974;-37
2021/08/14 08:36:43;;;;;;;3.33;1.95;;;;;;;31.12;42.76;100456.28;4976163;28;65572;-35
2021/08/14 08:39:14;;;;;;;3.78;1.95;;;;;;;31.03;43.17;100444.09;4976283;28;69106;-36
2021/08/14 08:41:45;;;;;;;4.97;1.52;;;;;;;31.07;43.11;100442.59;4976130;28;66738;-36
2021/08/14 08:44:16;;;;;;;5.57;1.98;;;;;;;31.13;42.74;100455.22;4959531;28;69998;-35
2021/08/14 08:46:54;;;;;;;8.82;2.05;;;;;;;31.05;42.97;100433.88;4972557;28;66126;-35
2021/08/14 08:49:26;;;;;;;6.57;2.20;;;;;;;31.10;43.15;100442.13;4972717;28;68772;-36
2021/08/14 08:52:00;;;;;;;2.47;1.40;;;;;;;31.13;45.27;100441.66;4986930;28;65546;-37
2021/08/14 08:54:32;;;;;;;4.45;1.48;;;;;;;31.04;45.03;100418.69;4977953;28;69246;-34
2021/08/14 08:57:05;;;;;;;3.22;1.83;;;;;;;31.15;44.93;100439.56;4993810;28;65718;-36
2021/08/14 08:59:36;;;;;;;5.05;1.55;;;;;;;31.12;46.68;100434.59;4979227;28;70455;-38
2021/08/14 09:02:30;;;;;;;3.22;1.88;;;;;;;31.12;47.48;100434.59;4970499;28;66530;-36
2021/08/14 09:05:17;;;;;;;8.90;2.15;;;;;;;31.14;46.95;100437.88;4979259;28;70403;-37
2021/08/14 09:07:50;;;;;;;4.13;2.00;;;;;;;31.14;45.89;100434.34;4944804;28;66365;-35
2021/08/14 09:10:25;;;;;;;2.15;2.00;;;;;;;30.71;45.13;100373.94;4979661;28;70084;-37
2021/08/14 09:12:57;;;;;;;1.92;1.73;;;;;;;31.11;44.74;100443.78;4994659;28;66573;-36
2021/08/14 09:15:31;;;;;;;5.57;2.30;;;;;;;30.38;45.02;100330.31;4974605;28;70618;-36
2021/08/14 09:18:08;;;;;;;2.90;2.70;;;;;;;30.70;43.72;100388.53;4976020;28;66048;-36
2021/08/14 09:20:53;;;;;;;5.47;2.60;;;;;;;30.67;43.94;100383.59;4962078;28;70117;-36
2021/08/14 09:23:25;;;;;;;3.95;2.20;;;;;;;31.03;43.37;100452.22;4976194;28;66152;-36
2021/08/14 09:25:57;;;;;;;2.88;2.60;;;;;;;31.02;42.92;100452.47;4965426;28;71066;-36
2021/08/14 09:28:39;;;;;;;;;;;;;;;30.72;43.52;100448.69;4962746;28;65097;-35
2021/08/14 09:31:13;;;;;;;7.32;2.70;;;;;;;31.01;47.69;100450.81;4972876;28;70909;-36
2021/08/14 09:33:44;;;;;;;5.35;2.53;;;;;;;31.07;50.26;100441.78;4979034;28;65081;-37
2021/08/14 09:36:16;;;;;;;3.15;2.95;;;;;;;31.26;51.94;100447.91;4981702;28;69532;-36
2021/08/14 09:38:49;;;;;;;4.57;3.03;;;;;;;30.62;52.79;100332.03;4984668;28;66355;-35
2021/08/14 09:41:24;;;;;;;8.23;3.80;;;;;;;31.49;54.90;100456.13;4982866;28;69657;-35
2021/08/14 09:43:56;;;;;;;5.70;3.70;;;;;;;31.61;54.39;100465.06;4947512;28;66449;-37
2021/08/14 09:46:42;;;;;;;6.72;3.92;;;;;;;31.68;56.00;100454.13;4979373;28;70974;-37
2021/08/14 09:49:12;;;;;;;3.97;3.58;;;;;;;31.81;55.58;100453.03;4976384;28;66039;-36
2021/08/14 09:51:43;;;;;;;3.97;3.22;;;;;;;31.89;55.88;100455.41;4980123;28;70447;-38
2021/08/14 09:54:14;;;;;;;4.32;4.00;;;;;;;31.94;56.88;100457.44;4977192;28;66116;-36
2021/08/14 09:56:45;;;;;;;4.18;3.88;;;;;;;32.01;57.26;100469.81;4956898;28;71460;-36
2021/08/14 09:59:18;;;;;;;7.47;3.85;;;;;;;32.10;57.24;100473.00;4977695;28;65447;-37
2021/08/14 10:01:51;;;;;;;5.05;3.70;;;;;;;32.12;58.03;100456.47;4970390;28;70178;-36
2021/08/14 10:04:22;;;;;;;4.43;4.03;;;;;;;32.19;58.04;100454.44;4972732;28;66279;-37
2021/08/14 10:06:53;;;;;;;3.65;3.30;;;;;;;32.15;57.27;100442.41;4938488;28;69035;-36
2021/08/14 10:09:24;;;;;;;3.55;3.35;;;;;;;32.26;57.26;100455.97;4961734;28;65888;-38
2021/08/14 10:11:55;;;;;;;4.07;3.77;;;;;;;32.33;56.92;100465.84;4974259;28;69284;-37
2021/08/14 10:14:26;;;;;;;;;;;;;;;32.09;57.98;100465.06;4986766;28;66031;-35
2021/08/14 10:16:58;;;;;;;15.00;3.33;;;;;;;32.35;57.05;100463.75;4996291;28;70047;-37
2021/08/14 10:19:29;;;;;;;3.40;3.20;;;;;;;32.38;56.46;100466.78;4958006;28;66271;-37
2021/08/14 10:22:01;;;;;;;3.47;3.20;;;;;;;32.31;56.42;100451.69;4978994;28;70036;-39
2021/08/14 10:24:41;;;;;;;12.25;3.90;;;;;;;32.13;57.50;100429.09;4977789;28;65581;-38
2021/08/14 10:27:23;;;;;;;6.32;4.35;;;;;;;32.45;56.93;100481.03;4992415;28;70222;-36
2021/08/14 10:29:58;;;;;;;10.45;4.22;;;;;;;32.50;57.27;100483.06;4975707;28;66196;-37
2021/08/14 10:32:35;;;;;;;;;;;;;;;32.27;59.51;100484.75;4989893;28;69707;-37
2021/08/14 10:35:20;;;;;;;10.93;5.93;;;;;;;32.50;58.22;100493.94;4977354;28;66657;-38
2021/08/14 10:37:54;;;;;;;7.65;5.20;;;;;;;32.49;57.58;100482.25;4976833;28;69992;-37
2021/08/14 10:41:00;;;;;;;13.73;7.68;;;;;;;32.62;57.46;100513.72;4984510;28;65955;-37
2021/08/14 10:43:53;;;;;;;9.60;8.52;;;;;;;32.58;57.92;100512.56;4979791;28;70176;-36
2021/08/14 10:46:48;;;;;;;15.75;8.27;;;;;;;32.61;58.43;100516.69;4986999;28;65931;-36
2021/08/14 10:49:34;;;;;;;9.65;8.18;;;;;;;32.64;58.63;100522.44;4971345;28;70525;-37
2021/08/14 10:52:06;;;;;;;9.70;7.45;;;;;;;32.67;58.33;100526.56;4974554;28;65805;-38
2021/08/14 10:54:43;;;;;;;7.32;6.43;;;;;;;32.68;58.91;100523.63;4987406;28;69675;-37
2021/08/14 10:57:17;;;;;;;7.40;6.72;;;;;;;32.55;59.46;100517.66;4979765;28;64623;-37
2021/08/14 10:59:51;;;;;;;6.88;6.05;;;;;;;32.69;58.86;100540.75;4975347;28;70152;-37
2021/08/14 11:02:22;;;;;;;5.88;5.45;;;;;;;32.66;58.84;100546.66;4972215;28;65696;-37
2021/08/14 11:04:57;;;;;;;6.95;5.38;;;;;;;32.65;59.66;100556.72;4974633;28;69648;-39
2021/08/14 11:07:28;;;;;;;5.70;5.20;;;;;;;32.65;59.47;100561.28;4972387;28;66738;-37
2021/08/14 11:10:02;;;;;;;5.72;4.55;;;;;;;32.66;59.52;100563.78;4990071;28;70522;-37
2021/08/14 11:12:41;;;;;;;4.97;4.60;;;;;;;32.56;59.54;100544.53;4975660;28;66058;-38
2021/08/14 11:15:27;;;;;;;5.10;4.80;;;;;;;32.59;60.26;100557.66;4973241;28;70060;-36
2021/08/14 11:18:02;;;;;;;5.57;5.18;;;;;;;32.60;60.27;100562.03;4975937;28;65743;-37
2021/08/14 11:20:36;;;;;;;6.10;5.30;;;;;;;32.62;59.72;100568.03;4983554;28;70329;-36
2021/08/14 11:23:25;;;;;;;5.90;5.50;;;;;;;32.21;60.25;100517.47;4976712;28;66169;-36
2021/08/14 11:25:56;;;;;;;6.03;5.63;;;;;;;32.58;59.72;100571.47;4987838;28;69020;-41
2021/08/14 11:28:27;;;;;;;6.53;6.03;;;;;;;32.60;59.93;100574.78;4975446;28;65359;-40
2021/08/14 11:31:07;;;;;;;6.93;6.23;;;;;;;32.60;60.52;100577.50;4990518;28;70434;-36
2021/08/14 11:33:38;;;;;;;6.70;6.15;;;;;;;32.51;60.23;100566.16;4976608;28;64384;-36
2021/08/14 11:36:10;;;;;;;6.22;5.85;;;;;;;32.58;60.46;100572.28;4992672;28;69661;-35
2021/08/14 11:38:42;;;;;;;7.25;6.63;;;;;;;32.55;59.95;100561.09;4976374;28;65670;-37
2021/08/14 11:41:20;;;;;;;10.90;7.13;;;;;;;32.25;60.63;100515.91;4973584;28;69281;-35
2021/08/14 11:43:51;;;;;;;9.00;6.97;;;;;;;32.57;60.92;100564.38;4976699;28;65554;-37
2021/08/14 11:46:25;;;;;;;9.63;7.15;;;;;;;32.56;61.38;100565.44;4993975;28;69160;-39
2021/08/14 11:49:01;;;;;;;19.33;7.63;;;;;;;32.52;60.31;100567.00;4986771;28;66675;-38
2021/08/14 11:51:31;;;;;;;15.93;7.93;;;;;;;32.48;59.39;100575.63;4972355;28;69279;-37
2021/08/14 11:54:08;;;;;;;16.50;8.60;;;;;;;31.96;58.27;100513.09;4981590;28;66209;-37
2021/08/14 11:56:40;;;;;;;16.33;7.88;;;;;;;32.27;57.83;100576.22;4979472;28;69372;-38
2021/08/14 11:59:14;;;;;;;10.00;8.07;;;;;;;32.17;57.26;100581.41;4979179;28;66603;-38
2021/08/14 12:01:51;;;;;;;13.80;8.45;;;;;;;32.03;56.29;100572.66;4959719;28;70152;-37